Ship Status Report: callsign BATFR34

sailwx.info

Track history (hours):
 
Tides and Currents Weather Stations Pressure Air Temp Water Temp Dewpoint Dewpoint Depression Visibility Wind Speed Wind Dir Waves Ship Positions

Callsign BATFR34 (name unknown)

Last reported at 2017-Jan-17 04:00 UTC. Time now 2017-Jan-17 04:52 UTC.
Position N 47°30' W 005°48'.

Wind from 070 at 11 knots

Barometer 1030.1 mb
Air temperature 28.4 ° C
Water temperature 13.2 ° C

Date/timePositionNaut miles runAvg speedWind from/ knotsBaromVisibWave heightAir tempDewpointWater temp
2017-Jan-17 04:00N 47°30' W 005°48'6 6.0 070 / 111030.1 28.4 13.2
2017-Jan-17 03:00N 47°24' W 005°48'4 4.1 020 / 131030.3 28.2 13.0
2017-Jan-17 02:00N 47°24' W 005°42'4 4.1 040 / 151030.4 37.0 13.2
2017-Jan-17 01:00N 47°24' W 005°36'6 3.0 030 / 31030.7 31.7 13.2
2017-Jan-16 23:00N 47°30' W 005°36'6 6.0 040 / 151030.6 27.4 13.0
2017-Jan-16 22:00N 47°36' W 005°36'0 0.0 020 / 121030.5 27.5 13.0
2017-Jan-16 21:00N 47°36' W 005°36'7 7.2 1030.4 27.4 13.0
2017-Jan-16 20:00N 47°42' W 005°30'4 2.0 1029.8 26.9 12.9
2017-Jan-16 18:00N 47°42' W 005°24'6 6.0 020 / 171029.3 20.9 12.9
2017-Jan-16 17:00N 47°36' W 005°24'4 4.0 030 / 171029.0 20.4 12.9
2017-Jan-16 16:00N 47°36' W 005°18'0 0.0 010 / 161029.1 19.2 12.9
2017-Jan-16 15:00N 47°36' W 005°18'4 4.0 010 / 161029.2 17.5 12.9
2017-Jan-16 14:00N 47°36' W 005°12'1010.1 360 / 201029.3 17.7 12.9
2017-Jan-16 13:00N 47°42' W 005°00'8 8.1 350 / 201029.2 17.2 12.9
2017-Jan-16 12:00N 47°42' W 004°48'   350 / 201029.4 16.4 9.412.7
2017-Jan-11 17:00N 48°48' W 006°18'0 0.0 310 / 181023.2 9.0 12.9
2017-Jan-11 16:00N 48°48' W 006°18'0 0.0 340 / 141022.7 9.9 8.212.9
2017-Jan-11 15:00N 48°48' W 006°18'6 6.0 360 / 181022.7 2.2 9.7 12.9
2017-Jan-11 14:00N 48°42' W 006°18'0 0.0 350 / 181022.5 9.9 13.0
2017-Jan-11 13:00N 48°42' W 006°18'6 6.0 330 / 161022.4 7.7 13.0
2017-Jan-11 12:00N 48°36' W 006°18'4 4.0 310 / 221021.7 2.2 10.0 13.0
2017-Jan-11 11:00N 48°36' W 006°24'0 0.0 320 / 221022.0 10.0 9.913.2
2017-Jan-11 10:00N 48°36' W 006°24'6 6.0 300 / 221021.6 10.9 9.913.2
2017-Jan-11 09:00N 48°30' W 006°24'6 6.0 280 / 161021.0 11.7 9.213.2
2017-Jan-11 08:00N 48°36' W 006°24'4 4.0 310 / 221020.1 11.9 7.413.2
2017-Jan-11 07:00N 48°36' W 006°18'6 6.0 320 / 271019.6 12.7 5.913.2
2017-Jan-11 06:00N 48°42' W 006°18'0 0.0 300 / 251019.2 13.0 2.413.2
2017-Jan-11 05:00N 48°42' W 006°18'0 0.0 290 / 191018.9 13.0 13.2
2017-Jan-11 04:00N 48°42' W 006°18'0 0.0 330 / 181019.1 13.7 13.2
2017-Jan-11 03:00N 48°42' W 006°18'0 0.0 340 / 211019.0 14.2 13.2
2017-Jan-11 02:00N 48°42' W 006°18'7 7.2 340 / 201019.7 11.7 13.2
2017-Jan-11 01:00N 48°36' W 006°24'6 3.0 330 / 191019.9 13.2
2017-Jan-10 23:00N 48°30' W 006°24'0 0.0 300 / 151021.2 12.4 13.4
2017-Jan-10 22:00N 48°30' W 006°24'0 0.0 300 / 181021.1 12.0 13.4
2017-Jan-10 21:00N 48°30' W 006°24'0 0.0 330 / 191020.8 18.2 13.4
2017-Jan-10 20:00N 48°30' W 006°24'7 7.2 320 / 211020.6 16.2 13.4
2017-Jan-10 19:00N 48°36' W 006°18'0 0.0 330 / 201020.6 13.2
2017-Jan-10 18:00N 48°36' W 006°18'12 4.0 320 / 101020.6 13.2
2017-Jan-10 15:00N 48°48' W 006°18'6 6.0 280 / 161018.7 2.2 1.5 13.2
2017-Jan-10 14:00N 48°42' W 006°18'0 0.0 330 / 151018.9 13.2
2017-Jan-10 12:00N 48°42' W 006°18'6 6.0 330 / 181020.2 20.4 13.2
2017-Jan-10 11:00N 48°36' W 006°18'4 4.0 320 / 221020.6 13.2
2017-Jan-10 10:00N 48°36' W 006°24'0 0.0 310 / 221020.5 21.0 13.2
2017-Jan-10 09:00N 48°36' W 006°24'0 0.0 330 / 201020.5 6.7 13.2
2017-Jan-10 08:00N 48°36' W 006°24'0 0.0 330 / 161019.7 6.9 13.2
2017-Jan-10 07:00N 48°36' W 006°24'4 4.0 320 / 191019.3 8.0 13.2
2017-Jan-10 06:00N 48°36' W 006°18'6 6.0 320 / 201019.1 15.2 13.2
2017-Jan-10 05:00N 48°42' W 006°18'0 0.0 320 / 211019.1 13.2
2017-Jan-10 04:00N 48°42' W 006°18'6 6.0 320 / 131018.9 13.2
2017-Jan-10 03:00N 48°36' W 006°18'0 0.0 340 / 191018.9 13.2
2017-Jan-10 02:00N 48°36' W 006°18'4 4.0 330 / 211018.7 13.4
2017-Jan-10 01:00N 48°36' W 006°24'6 6.0 340 / 181018.8 12.2 13.4
2017-Jan-10 00:00N 48°30' W 006°24'0 0.0 320 / 221019.6 19.5 13.4
2017-Jan-09 23:00N 48°30' W 006°24'0 0.0 320 / 181020.4 9.7 13.4
2017-Jan-09 22:00N 48°30' W 006°24'0 0.0 320 / 151020.2 15.9 13.4
2017-Jan-09 21:00N 48°30' W 006°24'7 7.2 320 / 151020.4 6.0 13.4
2017-Jan-09 20:00N 48°36' W 006°18'0 0.0 310 / 211021.1 13.2
2017-Jan-09 19:00N 48°36' W 006°18'4 4.0 320 / 171020.9 18.5 13.2
2017-Jan-09 18:00N 48°36' W 006°12'6 6.0 320 / 31021.3 22.2 13.2
2017-Jan-09 17:00N 48°42' W 006°12'0 0.0 310 / 191021.0 17.9 13.2
2017-Jan-09 16:00N 48°42' W 006°12'7 3.6 300 / 181020.3 13.4 13.2
2017-Jan-09 14:00N 48°48' W 006°18'0 0.0 250 / 231021.7 12.2 13.2
2017-Jan-09 13:00N 48°48' W 006°18'6 6.0 260 / 191022.7 12.211.013.2
2017-Jan-09 12:00N 48°42' W 006°18'0 0.0 260 / 191024.0 14.912.713.2
2017-Jan-09 11:00N 48°42' W 006°18'6 6.0 270 / 221025.1 16.512.413.2
2017-Jan-09 10:00N 48°36' W 006°18'0 0.0 240 / 151026.3 7.7 1.213.2
2017-Jan-09 09:00N 48°36' W 006°18'0 0.0 260 / 141027.0 2.2 10.9 7.713.4
2017-Jan-09 08:00N 48°36' W 006°18'0 0.0 250 / 201027.0 14.4 13.2
2017-Jan-09 07:00N 48°36' W 006°18'4 4.0 240 / 201027.5 10.5 13.2
2017-Jan-09 06:00N 48°36' W 006°12'6 6.0 260 / 191028.0 16.4 13.2
2017-Jan-09 05:00N 48°42' W 006°12'6 3.0 250 / 181028.8 13.2
2017-Jan-09 03:00N 48°48' W 006°12'7 7.2 240 / 151030.4 13.9 9.713.0
2017-Jan-09 02:00N 48°42' W 006°18'0 0.0 260 / 171030.9 31.423.213.0
2017-Jan-09 01:00N 48°42' W 006°18'6 6.0 240 / 151031.1 9.9 7.413.0
2017-Jan-09 00:00N 48°36' W 006°18'4 4.0 230 / 101032.2 9.4 13.2
2017-Jan-08 23:00N 48°36' W 006°24'6 6.0 210 / 91033.0 10.4 13.2
2017-Jan-08 22:00N 48°30' W 006°24'0 0.0 200 / 71033.7 13.2
2017-Jan-08 21:00N 48°30' W 006°24'4 4.0 210 / 61034.4 12.4 13.2
2017-Jan-08 20:00N 48°30' W 006°30'6 6.0 200 / 51034.4 0.4 13.2
2017-Jan-08 19:00N 48°24' W 006°30'4 4.0 210 / 61034.5 15.7 13.4
2017-Jan-08 18:00N 48°24' W 006°36'4 4.0 180 / 61034.3 17.9 13.4
2017-Jan-08 17:00N 48°24' W 006°30'6 6.0 260 / 31034.4 36.2 13.4
2017-Jan-08 16:00N 48°30' W 006°30'7 7.2 260 / 31034.2 31.9 13.4
2017-Jan-08 15:00N 48°24' W 006°36'0 0.0 250 / 41034.3 21.2 13.4
2017-Jan-08 14:00N 48°24' W 006°36'0 0.0 250 / 61034.5 4.7 13.4
2017-Jan-08 13:00N 48°24' W 006°36'7 7.2 260 / 61035.2 17.0 13.4
2017-Jan-08 12:00N 48°18' W 006°42'0 0.0 240 / 41035.8 5.4 13.4 13.4
2017-Jan-08 11:00N 48°18' W 006°42'6 6.0 210 / 31036.4 12.7 13.4
2017-Jan-08 10:00N 48°12' W 006°42'7 3.6 240 / 31036.3 19.4 13.4
2017-Jan-08 08:00N 48°06' W 006°48'0 0.0 240 / 11035.7 13.4
2017-Jan-08 07:00N 48°06' W 006°48'0 0.0 240 / 11035.7 13.4
2017-Jan-08 06:00N 48°06' W 006°48'6 6.0 180 / 21035.4 18.4 13.4
2017-Jan-08 05:00N 48°00' W 006°48'0 0.0 230 / 21035.3 14.5 13.4
2017-Jan-08 04:00N 48°00' W 006°48'6 6.0 160 / 31035.5 15.9 13.5
2017-Jan-08 03:00N 47°54' W 006°48'0 0.0 190 / 21035.7 28.7 13.4
2017-Jan-08 02:00N 47°54' W 006°48'0 0.0 120 / 21035.6 1.9 13.4
2017-Jan-08 01:00N 47°54' W 006°48'6 6.0 060 / 21036.0 8.7 13.4
2017-Jan-08 00:00N 47°48' W 006°48'0 0.0 060 / 11036.3 19.9 13.4
2017-Jan-07 23:00N 47°48' W 006°48'7 7.2 330 / 11036.4 13.9 13.4
2017-Jan-07 22:00N 47°42' W 006°42'0 0.0 130 / 11036.6 13.4
2017-Jan-07 21:00N 47°42' W 006°42'6 6.0 170 / 21036.5 -1.0 13.4
2017-Jan-07 20:00N 47°36' W 006°42'4 4.0 160 / 31036.3 7.9 13.4
2017-Jan-07 19:00N 47°36' W 006°36'8 4.0 140 / 61036.4 13.4
2017-Jan-07 17:00N 47°36' W 006°24'0 0.0 110 / 41036.2 6.9 13.4
2017-Jan-07 16:00N 47°36' W 006°24'0 0.0 100 / 21036.1 25.9 13.5
2017-Jan-07 15:00N 47°36' W 006°24'4 4.0 150 / 31035.9 0.2 13.5
2017-Jan-07 14:00N 47°36' W 006°18'7 7.2 140 / 41036.0 13.9 13.5
2017-Jan-07 13:00N 47°42' W 006°12'6 6.0 130 / 41036.2 24.4 13.4
2017-Jan-07 12:00N 47°48' W 006°12'7 7.2 150 / 41036.9 13.4
2017-Jan-07 11:00N 47°42' W 006°18'0 0.0 170 / 61037.4 13.5
2017-Jan-07 10:00N 47°42' W 006°18'4 2.0 140 / 51037.2 22.9 13.5
2017-Jan-07 08:00N 47°42' W 006°24'4 4.0 080 / 31036.5 6.9 13.5
2017-Jan-07 07:00N 47°42' W 006°30'6 6.0 120 / 41036.2 -0.1 13.4
2017-Jan-07 06:00N 47°36' W 006°30'4 4.0 140 / 61035.9 11.9 13.5
2017-Jan-07 05:00N 47°36' W 006°24'0 0.0 150 / 61036.2 5.5 13.4
2017-Jan-07 04:00N 47°36' W 006°24'   130 / 41036.1 19.5 13.5
Track history (hours):
 
Tides and Currents Weather Stations Pressure Air Temp Water Temp Dewpoint Dewpoint Depression Visibility Wind Speed Wind Dir Waves Ship Positions

Callsign BATFR34 (name unknown)

Last reported at 2017-Jan-17 04:00 UTC. Time now 2017-Jan-17 04:52 UTC.
Position N 47°30' W 005°48'.

Wind from 070 at 11 knots

Barometer 1030.1 mb
Air temperature 28.4 ° C
Water temperature 13.2 ° C

Date/timePositionNaut miles runAvg speedWind from/ knotsBaromVisibWave heightAir tempDewpointWater temp
2017-Jan-17 04:00N 47°30' W 005°48'6 6.0 070 / 111030.1 28.4 13.2
2017-Jan-17 03:00N 47°24' W 005°48'4 4.1 020 / 131030.3 28.2 13.0
2017-Jan-17 02:00N 47°24' W 005°42'4 4.1 040 / 151030.4 37.0 13.2
2017-Jan-17 01:00N 47°24' W 005°36'6 3.0 030 / 31030.7 31.7 13.2
2017-Jan-16 23:00N 47°30' W 005°36'6 6.0 040 / 151030.6 27.4 13.0
2017-Jan-16 22:00N 47°36' W 005°36'0 0.0 020 / 121030.5 27.5 13.0
2017-Jan-16 21:00N 47°36' W 005°36'7 7.2 1030.4 27.4 13.0
2017-Jan-16 20:00N 47°42' W 005°30'4 2.0 1029.8 26.9 12.9
2017-Jan-16 18:00N 47°42' W 005°24'6 6.0 020 / 171029.3 20.9 12.9
2017-Jan-16 17:00N 47°36' W 005°24'4 4.0 030 / 171029.0 20.4 12.9
2017-Jan-16 16:00N 47°36' W 005°18'0 0.0 010 / 161029.1 19.2 12.9
2017-Jan-16 15:00N 47°36' W 005°18'4 4.0 010 / 161029.2 17.5 12.9
2017-Jan-16 14:00N 47°36' W 005°12'1010.1 360 / 201029.3 17.7 12.9
2017-Jan-16 13:00N 47°42' W 005°00'8 8.1 350 / 201029.2 17.2 12.9
2017-Jan-16 12:00N 47°42' W 004°48'   350 / 201029.4 16.4 9.412.7
2017-Jan-11 17:00N 48°48' W 006°18'0 0.0 310 / 181023.2 9.0 12.9
2017-Jan-11 16:00N 48°48' W 006°18'0 0.0 340 / 141022.7 9.9 8.212.9
2017-Jan-11 15:00N 48°48' W 006°18'6 6.0 360 / 181022.7 2.2 9.7 12.9
2017-Jan-11 14:00N 48°42' W 006°18'0 0.0 350 / 181022.5 9.9 13.0
2017-Jan-11 13:00N 48°42' W 006°18'6 6.0 330 / 161022.4 7.7 13.0
2017-Jan-11 12:00N 48°36' W 006°18'4 4.0 310 / 221021.7 2.2 10.0 13.0
2017-Jan-11 11:00N 48°36' W 006°24'0 0.0 320 / 221022.0 10.0 9.913.2
2017-Jan-11 10:00N 48°36' W 006°24'6 6.0 300 / 221021.6 10.9 9.913.2
2017-Jan-11 09:00N 48°30' W 006°24'6 6.0 280 / 161021.0 11.7 9.213.2
2017-Jan-11 08:00N 48°36' W 006°24'4 4.0 310 / 221020.1 11.9 7.413.2
2017-Jan-11 07:00N 48°36' W 006°18'6 6.0 320 / 271019.6 12.7 5.913.2
2017-Jan-11 06:00N 48°42' W 006°18'0 0.0 300 / 251019.2 13.0 2.413.2
2017-Jan-11 05:00N 48°42' W 006°18'0 0.0 290 / 191018.9 13.0 13.2
2017-Jan-11 04:00N 48°42' W 006°18'0 0.0 330 / 181019.1 13.7 13.2
2017-Jan-11 03:00N 48°42' W 006°18'0 0.0 340 / 211019.0 14.2 13.2
2017-Jan-11 02:00N 48°42' W 006°18'7 7.2 340 / 201019.7 11.7 13.2
2017-Jan-11 01:00N 48°36' W 006°24'6 3.0 330 / 191019.9 13.2
2017-Jan-10 23:00N 48°30' W 006°24'0 0.0 300 / 151021.2 12.4 13.4
2017-Jan-10 22:00N 48°30' W 006°24'0 0.0 300 / 181021.1 12.0 13.4
2017-Jan-10 21:00N 48°30' W 006°24'0 0.0 330 / 191020.8 18.2 13.4
2017-Jan-10 20:00N 48°30' W 006°24'7 7.2 320 / 211020.6 16.2 13.4
2017-Jan-10 19:00N 48°36' W 006°18'0 0.0 330 / 201020.6 13.2
2017-Jan-10 18:00N 48°36' W 006°18'12 4.0 320 / 101020.6 13.2
2017-Jan-10 15:00N 48°48' W 006°18'6 6.0 280 / 161018.7 2.2 1.5 13.2
2017-Jan-10 14:00N 48°42' W 006°18'0 0.0 330 / 151018.9 13.2
2017-Jan-10 12:00N 48°42' W 006°18'6 6.0 330 / 181020.2 20.4 13.2
2017-Jan-10 11:00N 48°36' W 006°18'4 4.0 320 / 221020.6 13.2
2017-Jan-10 10:00N 48°36' W 006°24'0 0.0 310 / 221020.5 21.0 13.2
2017-Jan-10 09:00N 48°36' W 006°24'0 0.0 330 / 201020.5 6.7 13.2
2017-Jan-10 08:00N 48°36' W 006°24'0 0.0 330 / 161019.7 6.9 13.2
2017-Jan-10 07:00N 48°36' W 006°24'4 4.0 320 / 191019.3 8.0 13.2
2017-Jan-10 06:00N 48°36' W 006°18'6 6.0 320 / 201019.1 15.2 13.2
2017-Jan-10 05:00N 48°42' W 006°18'0 0.0 320 / 211019.1 13.2
2017-Jan-10 04:00N 48°42' W 006°18'6 6.0 320 / 131018.9 13.2
2017-Jan-10 03:00N 48°36' W 006°18'0 0.0 340 / 191018.9 13.2
2017-Jan-10 02:00N 48°36' W 006°18'4 4.0 330 / 211018.7 13.4
2017-Jan-10 01:00N 48°36' W 006°24'6 6.0 340 / 181018.8 12.2 13.4
2017-Jan-10 00:00N 48°30' W 006°24'0 0.0 320 / 221019.6 19.5 13.4
2017-Jan-09 23:00N 48°30' W 006°24'0 0.0 320 / 181020.4 9.7 13.4
2017-Jan-09 22:00N 48°30' W 006°24'0 0.0 320 / 151020.2 15.9 13.4
2017-Jan-09 21:00N 48°30' W 006°24'7 7.2 320 / 151020.4 6.0 13.4
2017-Jan-09 20:00N 48°36' W 006°18'0 0.0 310 / 211021.1 13.2
2017-Jan-09 19:00N 48°36' W 006°18'4 4.0 320 / 171020.9 18.5 13.2
2017-Jan-09 18:00N 48°36' W 006°12'6 6.0 320 / 31021.3 22.2 13.2
2017-Jan-09 17:00N 48°42' W 006°12'0 0.0 310 / 191021.0 17.9 13.2
2017-Jan-09 16:00N 48°42' W 006°12'7 3.6 300 / 181020.3 13.4 13.2
2017-Jan-09 14:00N 48°48' W 006°18'0 0.0 250 / 231021.7 12.2 13.2
2017-Jan-09 13:00N 48°48' W 006°18'6 6.0 260 / 191022.7 12.211.013.2
2017-Jan-09 12:00N 48°42' W 006°18'0 0.0 260 / 191024.0 14.912.713.2
2017-Jan-09 11:00N 48°42' W 006°18'6 6.0 270 / 221025.1 16.512.413.2
2017-Jan-09 10:00N 48°36' W 006°18'0 0.0 240 / 151026.3 7.7 1.213.2
2017-Jan-09 09:00N 48°36' W 006°18'0 0.0 260 / 141027.0 2.2 10.9 7.713.4
2017-Jan-09 08:00N 48°36' W 006°18'0 0.0 250 / 201027.0 14.4 13.2
2017-Jan-09 07:00N 48°36' W 006°18'4 4.0 240 / 201027.5 10.5 13.2
2017-Jan-09 06:00N 48°36' W 006°12'6 6.0 260 / 191028.0 16.4 13.2
2017-Jan-09 05:00N 48°42' W 006°12'6 3.0 250 / 181028.8 13.2
2017-Jan-09 03:00N 48°48' W 006°12'7 7.2 240 / 151030.4 13.9 9.713.0
2017-Jan-09 02:00N 48°42' W 006°18'0 0.0 260 / 171030.9 31.423.213.0
2017-Jan-09 01:00N 48°42' W 006°18'6 6.0 240 / 151031.1 9.9 7.413.0
2017-Jan-09 00:00N 48°36' W 006°18'4 4.0 230 / 101032.2 9.4 13.2
2017-Jan-08 23:00N 48°36' W 006°24'6 6.0 210 / 91033.0 10.4 13.2
2017-Jan-08 22:00N 48°30' W 006°24'0 0.0 200 / 71033.7 13.2
2017-Jan-08 21:00N 48°30' W 006°24'4 4.0 210 / 61034.4 12.4 13.2
2017-Jan-08 20:00N 48°30' W 006°30'6 6.0 200 / 51034.4 0.4 13.2
2017-Jan-08 19:00N 48°24' W 006°30'4 4.0 210 / 61034.5 15.7 13.4
2017-Jan-08 18:00N 48°24' W 006°36'4 4.0 180 / 61034.3 17.9 13.4
2017-Jan-08 17:00N 48°24' W 006°30'6 6.0 260 / 31034.4 36.2 13.4
2017-Jan-08 16:00N 48°30' W 006°30'7 7.2 260 / 31034.2 31.9 13.4
2017-Jan-08 15:00N 48°24' W 006°36'0 0.0 250 / 41034.3 21.2 13.4
2017-Jan-08 14:00N 48°24' W 006°36'0 0.0 250 / 61034.5 4.7 13.4
2017-Jan-08 13:00N 48°24' W 006°36'7 7.2 260 / 61035.2 17.0 13.4
2017-Jan-08 12:00N 48°18' W 006°42'0 0.0 240 / 41035.8 5.4 13.4 13.4
2017-Jan-08 11:00N 48°18' W 006°42'6 6.0 210 / 31036.4 12.7 13.4
2017-Jan-08 10:00N 48°12' W 006°42'7 3.6 240 / 31036.3 19.4 13.4
2017-Jan-08 08:00N 48°06' W 006°48'0 0.0 240 / 11035.7 13.4
2017-Jan-08 07:00N 48°06' W 006°48'0 0.0 240 / 11035.7 13.4
2017-Jan-08 06:00N 48°06' W 006°48'6 6.0 180 / 21035.4 18.4 13.4
2017-Jan-08 05:00N 48°00' W 006°48'0 0.0 230 / 21035.3 14.5 13.4
2017-Jan-08 04:00N 48°00' W 006°48'6 6.0 160 / 31035.5 15.9 13.5
2017-Jan-08 03:00N 47°54' W 006°48'0 0.0 190 / 21035.7 28.7 13.4
2017-Jan-08 02:00N 47°54' W 006°48'0 0.0 120 / 21035.6 1.9 13.4
2017-Jan-08 01:00N 47°54' W 006°48'6 6.0 060 / 21036.0 8.7 13.4
2017-Jan-08 00:00N 47°48' W 006°48'0 0.0 060 / 11036.3 19.9 13.4
2017-Jan-07 23:00N 47°48' W 006°48'7 7.2 330 / 11036.4 13.9 13.4
2017-Jan-07 22:00N 47°42' W 006°42'0 0.0 130 / 11036.6 13.4
2017-Jan-07 21:00N 47°42' W 006°42'6 6.0 170 / 21036.5 -1.0 13.4
2017-Jan-07 20:00N 47°36' W 006°42'4 4.0 160 / 31036.3 7.9 13.4
2017-Jan-07 19:00N 47°36' W 006°36'8 4.0 140 / 61036.4 13.4
2017-Jan-07 17:00N 47°36' W 006°24'0 0.0 110 / 41036.2 6.9 13.4
2017-Jan-07 16:00N 47°36' W 006°24'0 0.0 100 / 21036.1 25.9 13.5
2017-Jan-07 15:00N 47°36' W 006°24'4 4.0 150 / 31035.9 0.2 13.5
2017-Jan-07 14:00N 47°36' W 006°18'7 7.2 140 / 41036.0 13.9 13.5
2017-Jan-07 13:00N 47°42' W 006°12'6 6.0 130 / 41036.2 24.4 13.4
2017-Jan-07 12:00N 47°48' W 006°12'7 7.2 150 / 41036.9 13.4
2017-Jan-07 11:00N 47°42' W 006°18'0 0.0 170 / 61037.4 13.5
2017-Jan-07 10:00N 47°42' W 006°18'4 2.0 140 / 51037.2 22.9 13.5
2017-Jan-07 08:00N 47°42' W 006°24'4 4.0 080 / 31036.5 6.9 13.5
2017-Jan-07 07:00N 47°42' W 006°30'6 6.0 120 / 41036.2 -0.1 13.4
2017-Jan-07 06:00N 47°36' W 006°30'4 4.0 140 / 61035.9 11.9 13.5
2017-Jan-07 05:00N 47°36' W 006°24'0 0.0 150 / 61036.2 5.5 13.4
2017-Jan-07 04:00N 47°36' W 006°24'   130 / 41036.1 19.5 13.5

Dump ship's entire track history